LiveATC.Net - Listen to live air traffic control over the Internet!


ICAO: ENAT  IATA: ALF   Airport: Alta Airport
City: Alta
Country: Norway   Continent: Europe
ENAT METAR Weather: ENAT 250350Z 24008KT 9999 VCSH FEW005 SCT015 BKN042 02/M02 Q1001 RMK WIND 700FT 23012KT
ENAT Flight Activity (FlightAware)

ENAT Twr/App/Control
Feed Status: UP   Listeners: 0
Listen right in your browser - requires Flash (in browser, requires Flash)
Click here to listen with your own player (launches your MP3 player)
ENAT Twr/App/Control Audio Archives
FacilityFrequency
Alta Tower (to boat, Harbour Channel 12)156.600
Alta Tower (to vehicle)462.400
Alta Tower/Approach120.400
Norway Control126.700

NOTICE

Unauthorized use prohibited. See LiveATC.net Terms of Service


Find LiveATC Audio Streams


Airport/ARTCC Code

Frequency Search
(e.g., 124.400, 128.75)
Site-wide search
 


Browse LiveATC Feeds
Top 50 LiveATC Feeds
Bad Weather Areas

LiveATC FAQ
Offer a LiveATC Feed
Contact LiveATC.net
Press Inquiries

LiveATC on iPhone
LiveATC on Android

Windows Phone
Windows 8/10

LiveATC Mobile
(Mobile browser)

ATC Audio Archives
Interesting Recordings

LiveATC Forums


Home Page
About LiveATC.net
Make a Donation
Terms of Use
Privacy Policy

Canadian Air Freqs

AIRMETs/SIGMETs

FAA Airport Status
Nat'l Airspace Status
Arrival Demand Charts


Server Software By:
Icecast.org
Liquidsoap